createdAt,value
2018-07-31T00:03:07.408Z,1007.9
2018-07-31T00:08:20.072Z,1007.8
2018-07-31T00:13:32.837Z,1007.8
2018-07-31T00:18:45.622Z,1007.8
2018-07-31T00:23:58.459Z,1007.9
2018-07-31T00:29:11.397Z,1007.9
2018-07-31T00:34:24.092Z,1007.9
2018-07-31T00:39:36.925Z,1007.9
2018-07-31T00:44:49.927Z,1007.9
2018-07-31T00:50:03.463Z,1007.9
2018-07-31T00:55:15.411Z,1007.9
2018-07-31T01:00:28.294Z,1007.8
2018-07-31T01:05:41.073Z,1007.9
2018-07-31T01:10:53.985Z,1007.8
2018-07-31T01:16:06.760Z,1007.9
2018-07-31T01:21:19.562Z,1007.8
2018-07-31T01:26:32.399Z,1007.8
2018-07-31T01:31:45.223Z,1007.9
2018-07-31T01:36:58.118Z,1007.9
2018-07-31T01:42:10.876Z,1007.9
2018-07-31T01:47:23.715Z,1007.9
2018-07-31T01:52:36.552Z,1007.9
2018-07-31T01:57:49.500Z,1007.8
2018-07-31T02:03:02.214Z,1007.7
2018-07-31T02:08:15.046Z,1007.7
2018-07-31T02:13:27.877Z,1007.8
2018-07-31T02:18:40.769Z,1007.8
2018-07-31T02:23:53.678Z,1007.7
2018-07-31T02:29:06.376Z,1007.6
2018-07-31T02:34:19.305Z,1007.7
2018-07-31T02:39:32.071Z,1007.7
2018-07-31T02:44:44.899Z,1007.7
2018-07-31T02:49:59.863Z,1007.7
2018-07-31T02:55:10.535Z,1007.7
2018-07-31T03:00:23.357Z,1007.7
2018-07-31T03:05:36.171Z,1007.8
2018-07-31T03:16:01.880Z,1007.8
2018-07-31T03:21:14.664Z,1007.8
2018-07-31T03:26:27.577Z,1007.8
2018-07-31T03:31:40.396Z,1008
2018-07-31T03:36:53.281Z,1008.1
2018-07-31T03:42:06.016Z,1008
2018-07-31T03:47:18.900Z,1008
2018-07-31T03:52:31.773Z,1008
2018-07-31T03:57:44.565Z,1008.1
2018-07-31T04:02:57.308Z,1008.2
2018-07-31T04:08:10.202Z,1008.2
2018-07-31T04:13:22.986Z,1008.3
2018-07-31T04:18:35.865Z,1008.2
2018-07-31T04:23:48.860Z,1008.2
2018-07-31T04:29:01.725Z,1008.2
2018-07-31T04:34:14.314Z,1008.3
2018-07-31T04:39:27.634Z,1008.3
2018-07-31T04:44:42.293Z,1008.3
2018-07-31T04:49:53.713Z,1008.4
2018-07-31T04:55:05.632Z,1008.3
2018-07-31T05:00:19.973Z,1008.3
2018-07-31T05:05:31.362Z,1008.3
2018-07-31T05:10:44.145Z,1008.4
2018-07-31T05:15:56.964Z,1008.4
2018-07-31T05:21:09.781Z,1008.5
2018-07-31T05:26:22.950Z,1008.5
2018-07-31T05:31:35.526Z,1008.4
2018-07-31T05:36:48.271Z,1008.5
2018-07-31T05:42:01.209Z,1008.5
2018-07-31T05:47:13.963Z,1008.5
2018-07-31T05:52:26.918Z,1008.5
2018-07-31T05:57:39.600Z,1008.5
2018-07-31T06:02:52.812Z,1008.6
2018-07-31T06:08:05.341Z,1008.6
2018-07-31T06:18:30.964Z,1008.8
2018-07-31T06:23:43.758Z,1008.8
2018-07-31T06:28:56.841Z,1008.8
2018-07-31T06:39:22.380Z,1008.9
2018-07-31T06:44:35.082Z,1008.9
2018-07-31T06:49:48.093Z,1009
2018-07-31T06:55:00.890Z,1009.1
2018-07-31T07:00:13.564Z,1009
2018-07-31T07:05:26.433Z,1009
2018-07-31T07:10:39.221Z,1009
2018-07-31T07:15:52.132Z,1008.9
2018-07-31T07:21:04.871Z,1009
2018-07-31T07:26:17.977Z,1009
2018-07-31T07:31:30.562Z,1009
2018-07-31T07:36:43.654Z,1009
2018-07-31T07:41:56.263Z,1009
2018-07-31T07:47:09.051Z,1009
2018-07-31T07:52:21.922Z,1008.9
2018-07-31T07:57:34.710Z,1008.9
2018-07-31T08:02:47.604Z,1008.9
2018-07-31T08:08:00.367Z,1008.9
2018-07-31T08:13:13.996Z,1008.9
2018-07-31T08:18:26.063Z,1009
2018-07-31T08:23:38.903Z,1009
2018-07-31T08:28:51.722Z,1009
2018-07-31T08:34:04.557Z,1009
2018-07-31T08:39:17.360Z,1009
2018-07-31T08:44:30.269Z,1009
2018-07-31T08:49:43.089Z,1009
2018-07-31T08:54:55.861Z,1009
2018-07-31T09:00:08.894Z,1009
2018-07-31T09:10:34.388Z,1009
2018-07-31T09:15:47.192Z,1009.1
2018-07-31T09:21:00.035Z,1009.1
2018-07-31T09:26:12.887Z,1009.1
2018-07-31T09:31:25.690Z,1009.1
2018-07-31T09:36:38.619Z,1009.2
2018-07-31T09:41:51.410Z,1009.1
2018-07-31T09:47:04.221Z,1009
2018-07-31T09:52:16.994Z,1009
2018-07-31T09:57:29.961Z,1009
2018-07-31T10:07:55.645Z,1009.1
2018-07-31T10:13:08.645Z,1009
2018-07-31T10:18:21.270Z,1009
2018-07-31T10:23:34.096Z,1009.1
2018-07-31T10:28:46.856Z,1009.2
2018-07-31T10:33:59.787Z,1009.1
2018-07-31T10:39:12.693Z,1009.2
2018-07-31T10:44:25.384Z,1009.1
2018-07-31T10:49:38.503Z,1009.2
2018-07-31T10:54:51.231Z,1009.2
2018-07-31T11:00:03.852Z,1009.3
2018-07-31T11:05:16.613Z,1009.3
2018-07-31T11:10:29.491Z,1009.3
2018-07-31T11:15:42.303Z,1009.3
2018-07-31T11:20:55.149Z,1009.3
2018-07-31T11:31:20.837Z,1009.3
2018-07-31T11:36:33.585Z,1009.3
2018-07-31T11:46:59.402Z,1009.2
2018-07-31T11:52:12.101Z,1009.2
2018-07-31T11:57:24.888Z,1009.3
2018-07-31T12:02:37.729Z,1009.2
2018-07-31T12:07:50.551Z,1009.2
2018-07-31T12:13:03.380Z,1009.2
2018-07-31T12:18:16.308Z,1009.1
2018-07-31T12:23:29.054Z,1009.1
2018-07-31T12:28:41.976Z,1009.1
2018-07-31T12:33:54.770Z,1009.1
2018-07-31T12:39:07.646Z,1009.2
2018-07-31T12:44:20.358Z,1009.2
2018-07-31T12:49:33.195Z,1009.2
2018-07-31T12:54:46.078Z,1009.2
2018-07-31T12:59:58.841Z,1009.1
2018-07-31T13:05:11.909Z,1009.2
2018-07-31T13:10:24.545Z,1009.3
2018-07-31T13:15:37.547Z,1009.3
2018-07-31T13:20:50.205Z,1009.2
2018-07-31T13:26:03.148Z,1009.2
2018-07-31T13:31:15.832Z,1009.2
2018-07-31T13:36:28.634Z,1009.3
2018-07-31T13:41:41.664Z,1009.4
2018-07-31T13:46:54.343Z,1009.5
2018-07-31T13:52:07.206Z,1009.5
2018-07-31T13:57:20.071Z,1009.5
2018-07-31T14:02:32.779Z,1009.6
2018-07-31T14:07:45.626Z,1009.6
2018-07-31T14:18:11.343Z,1009.6
2018-07-31T14:23:24.091Z,1009.6
2018-07-31T14:28:36.951Z,1009.5
2018-07-31T14:39:02.579Z,1009.6
2018-07-31T14:49:28.288Z,1009.6
2018-07-31T14:54:41.072Z,1009.8
2018-07-31T14:59:54.021Z,1009.8
2018-07-31T15:05:06.707Z,1009.8
2018-07-31T15:10:19.538Z,1009.7
2018-07-31T15:15:32.359Z,1009.7
2018-07-31T15:20:45.488Z,1009.8
2018-07-31T15:25:58.239Z,1009.8
2018-07-31T15:31:10.856Z,1009.9
2018-07-31T15:36:23.773Z,1009.9
2018-07-31T15:41:36.520Z,1009.9
2018-07-31T15:46:49.375Z,1009.9
2018-07-31T15:52:02.857Z,1009.9
2018-07-31T15:57:15.119Z,1010
2018-07-31T16:02:27.837Z,1010
2018-07-31T16:07:40.685Z,1009.9
2018-07-31T16:12:53.800Z,1009.9
2018-07-31T16:18:06.324Z,1009.9
2018-07-31T16:23:19.126Z,1009.9
2018-07-31T16:28:32.069Z,1009.9
2018-07-31T16:33:44.833Z,1010
2018-07-31T16:38:57.640Z,1010.1
2018-07-31T16:44:10.462Z,1010
2018-07-31T16:49:23.309Z,1010.1
2018-07-31T16:54:36.105Z,1010.2
2018-07-31T16:59:48.929Z,1010.2
2018-07-31T17:05:01.765Z,1010.3
2018-07-31T17:10:14.607Z,1010.3
2018-07-31T17:15:27.461Z,1010.4
2018-07-31T17:20:40.425Z,1010.5
2018-07-31T17:25:53.192Z,1010.5
2018-07-31T17:31:05.935Z,1010.5
2018-07-31T17:36:18.774Z,1010.5
2018-07-31T17:41:31.660Z,1010.6
2018-07-31T17:46:44.445Z,1010.5
2018-07-31T17:51:57.243Z,1010.7
2018-07-31T17:57:10.086Z,1010.8
2018-07-31T18:02:22.971Z,1011.1
2018-07-31T18:07:35.696Z,1010.9
2018-07-31T18:12:48.543Z,1011
2018-07-31T18:18:01.425Z,1011.1
2018-07-31T18:23:14.194Z,1011.1
2018-07-31T18:28:27.031Z,1011.1
2018-07-31T18:33:39.987Z,1011.2
2018-07-31T18:38:52.678Z,1011.3
2018-07-31T18:44:05.584Z,1011.4
2018-07-31T18:49:18.374Z,1011.4
2018-07-31T18:54:31.231Z,1011.5
2018-07-31T18:59:44.016Z,1011.7
2018-07-31T19:04:57.012Z,1011.8
2018-07-31T19:10:09.665Z,1011.8
2018-07-31T19:20:35.319Z,1012
2018-07-31T19:31:01.038Z,1012.2
2018-07-31T19:36:13.813Z,1012.2
2018-07-31T19:41:26.771Z,1012.1
2018-07-31T19:46:39.467Z,1012.2
2018-07-31T19:51:52.329Z,1012.3
2018-07-31T19:57:05.118Z,1012.3
2018-07-31T20:02:17.984Z,1012.4
2018-07-31T20:07:30.785Z,1012.4
2018-07-31T20:12:43.771Z,1012.5
2018-07-31T20:17:56.545Z,1012.6
2018-07-31T20:23:09.273Z,1012.7
2018-07-31T20:28:22.419Z,1012.7
2018-07-31T20:38:47.749Z,1012.7
2018-07-31T20:44:00.606Z,1012.8
2018-07-31T20:49:13.463Z,1012.9
2018-07-31T20:54:26.284Z,1013
2018-07-31T20:59:39.073Z,1013
2018-07-31T21:04:51.916Z,1013.1
2018-07-31T21:10:04.861Z,1013.2
2018-07-31T21:15:17.636Z,1013.2
2018-07-31T21:20:30.616Z,1013.1
2018-07-31T21:25:43.373Z,1013.2
2018-07-31T21:30:56.085Z,1013.2
2018-07-31T21:36:08.890Z,1013.2
2018-07-31T21:41:22.281Z,1013.2
2018-07-31T21:46:34.837Z,1013.3
2018-07-31T21:51:47.389Z,1013.4
2018-07-31T21:57:00.323Z,1013.5
2018-07-31T22:02:13.058Z,1013.5
2018-07-31T22:12:38.729Z,1013.5
2018-07-31T22:17:51.550Z,1013.6
2018-07-31T22:23:04.381Z,1013.6
2018-07-31T22:28:17.232Z,1013.6
2018-07-31T22:43:55.725Z,1013.7
2018-07-31T22:49:08.537Z,1013.8
2018-07-31T22:54:21.377Z,1013.8
2018-07-31T22:59:34.340Z,1013.8
2018-07-31T23:04:47.114Z,1013.9
2018-07-31T23:09:59.912Z,1014
2018-07-31T23:15:12.735Z,1014
2018-07-31T23:20:25.616Z,1014
2018-07-31T23:25:38.336Z,1014
2018-07-31T23:30:51.214Z,1013.9
2018-07-31T23:36:04.080Z,1013.9
2018-07-31T23:41:16.841Z,1013.8
2018-07-31T23:46:29.679Z,1013.9
2018-07-31T23:51:42.723Z,1014
2018-07-31T23:56:55.712Z,1014
